createdAt,value
2023-01-01T00:01:50.598Z,42.90
2023-01-01T00:04:18.720Z,50.63
2023-01-01T00:06:46.488Z,43.63
2023-01-01T00:09:33.031Z,43.40
2023-01-01T00:12:02.059Z,45.87
2023-01-01T00:14:30.240Z,41.60
2023-01-01T00:16:58.087Z,47.60
2023-01-01T00:19:26.851Z,40.23
2023-01-01T00:21:55.205Z,37.10
2023-01-01T00:24:23.256Z,35.73
2023-01-01T00:26:50.937Z,34.57
2023-01-01T00:29:19.950Z,34.00
2023-01-01T00:31:48.239Z,26.77
2023-01-01T00:34:15.999Z,26.30
2023-01-01T00:36:44.380Z,25.00
2023-01-01T00:39:12.064Z,26.43
2023-01-01T00:41:39.751Z,25.80
2023-01-01T00:44:07.586Z,28.07
2023-01-01T00:46:36.945Z,32.17
2023-01-01T00:49:04.654Z,41.43
2023-01-01T00:51:36.972Z,36.30
2023-01-01T00:54:05.090Z,44.07
2023-01-01T00:56:33.055Z,33.87
2023-01-01T00:59:01.801Z,27.63
2023-01-01T01:01:30.046Z,28.70
2023-01-01T01:03:59.159Z,26.40
2023-01-01T01:06:27.371Z,29.70
2023-01-01T01:08:55.040Z,27.33
2023-01-01T01:11:25.385Z,23.33
2023-01-01T01:13:55.966Z,24.53
2023-01-01T01:16:27.335Z,20.60
2023-01-01T01:18:57.569Z,20.23
2023-01-01T01:21:28.354Z,21.93
2023-01-01T01:23:58.065Z,22.53
2023-01-01T01:26:28.774Z,22.03
2023-01-01T01:28:57.486Z,20.73
2023-01-01T01:31:28.345Z,22.50
2023-01-01T01:33:57.190Z,22.33
2023-01-01T01:36:26.880Z,21.50
2023-01-01T01:38:54.810Z,25.77
2023-01-01T01:41:28.264Z,26.67
2023-01-01T01:43:59.635Z,23.23
2023-01-01T01:46:34.249Z,22.30
2023-01-01T01:49:06.085Z,24.53
2023-01-01T01:51:38.339Z,23.50
2023-01-01T01:54:11.821Z,18.83
2023-01-01T01:56:46.583Z,17.30
2023-01-01T01:59:14.981Z,13.87
2023-01-01T02:01:43.569Z,8.40
2023-01-01T02:04:12.989Z,8.73
2023-01-01T02:06:42.908Z,6.60
2023-01-01T02:09:10.983Z,7.30
2023-01-01T02:11:39.445Z,7.00
2023-01-01T02:14:07.595Z,6.30
2023-01-01T02:16:40.952Z,8.80
2023-01-01T02:19:18.177Z,8.10
2023-01-01T02:22:00.766Z,11.73
2023-01-01T02:24:53.727Z,12.17
2023-01-01T02:27:30.332Z,9.80
2023-01-01T02:30:03.104Z,11.73
2023-01-01T02:32:37.586Z,13.17
2023-01-01T02:35:23.424Z,12.63
2023-01-01T02:37:54.750Z,12.57
2023-01-01T02:40:24.781Z,11.73
2023-01-01T02:42:54.692Z,12.47
2023-01-01T02:45:24.106Z,11.77
2023-01-01T02:47:52.327Z,12.40
2023-01-01T02:50:23.345Z,11.40
2023-01-01T02:53:03.080Z,11.73
2023-01-01T02:55:38.626Z,10.57
2023-01-01T02:58:32.289Z,9.37
2023-01-01T03:01:12.736Z,14.33
2023-01-01T03:03:46.084Z,13.63
2023-01-01T03:06:27.367Z,11.07
2023-01-01T03:09:08.726Z,14.37
2023-01-01T03:11:45.371Z,14.10
2023-01-01T03:14:19.978Z,15.10
2023-01-01T03:16:52.395Z,13.47
2023-01-01T03:19:22.809Z,12.60
2023-01-01T03:21:53.078Z,15.13
2023-01-01T03:24:25.434Z,13.30
2023-01-01T03:26:57.452Z,12.83
2023-01-01T03:29:28.368Z,15.23
2023-01-01T03:32:01.341Z,13.40
2023-01-01T03:34:34.593Z,13.63
2023-01-01T03:37:06.746Z,11.67
2023-01-01T03:39:39.143Z,12.20
2023-01-01T03:42:16.475Z,11.10
2023-01-01T03:44:48.844Z,14.93
2023-01-01T03:47:18.549Z,9.77
2023-01-01T03:49:49.581Z,10.27
2023-01-01T03:52:29.156Z,12.20
2023-01-01T03:55:05.469Z,9.70
2023-01-01T03:57:41.415Z,11.57
2023-01-01T04:00:16.265Z,10.73
2023-01-01T04:02:51.021Z,8.97
2023-01-01T04:05:20.769Z,13.03
2023-01-01T04:07:52.916Z,6.30
2023-01-01T04:10:21.206Z,7.60
2023-01-01T04:12:51.597Z,5.20
2023-01-01T04:15:21.276Z,4.20
2023-01-01T04:17:50.925Z,7.90
2023-01-01T04:20:18.855Z,5.83
2023-01-01T04:22:47.649Z,2.73
2023-01-01T04:25:17.361Z,4.10
2023-01-01T04:27:46.535Z,4.00
2023-01-01T04:30:16.056Z,3.23
2023-01-01T04:32:44.112Z,3.40
2023-01-01T04:35:14.675Z,2.43
2023-01-01T04:37:44.943Z,3.10
2023-01-01T04:40:14.895Z,2.77
2023-01-01T04:42:43.659Z,3.50
2023-01-01T04:45:14.899Z,2.17
2023-01-01T04:47:43.315Z,3.33
2023-01-01T04:50:11.201Z,2.03
2023-01-01T04:52:41.013Z,3.70
2023-01-01T04:55:09.371Z,2.80
2023-01-01T04:57:37.490Z,2.20
2023-01-01T05:00:06.113Z,5.50
2023-01-01T05:02:33.876Z,1.70
2023-01-01T05:05:01.709Z,2.80
2023-01-01T05:07:29.387Z,2.77
2023-01-01T05:09:58.748Z,2.07
2023-01-01T05:12:26.388Z,1.97
2023-01-01T05:14:54.412Z,2.23
2023-01-01T05:17:22.088Z,2.53
2023-01-01T05:19:49.927Z,2.73
2023-01-01T05:22:17.578Z,2.10
2023-01-01T05:24:45.565Z,3.37
2023-01-01T05:27:14.892Z,3.20
2023-01-01T05:29:42.889Z,3.37
2023-01-01T05:37:03.983Z,2.53
2023-01-01T05:39:32.274Z,4.63
2023-01-01T05:41:59.927Z,1.83
2023-01-01T05:44:29.991Z,2.10
2023-01-01T05:46:57.998Z,2.40
2023-01-01T05:49:25.677Z,3.27
2023-01-01T05:51:53.335Z,2.47
2023-01-01T05:54:22.159Z,3.63
2023-01-01T05:56:49.809Z,1.70
2023-01-01T05:59:18.225Z,4.27
2023-01-01T06:01:50.264Z,2.33
2023-01-01T06:04:18.884Z,2.43
2023-01-01T06:06:46.589Z,2.87
2023-01-01T06:09:14.869Z,2.13
2023-01-01T06:11:43.557Z,3.00
2023-01-01T06:14:11.560Z,2.83
2023-01-01T06:16:39.442Z,2.87
2023-01-01T06:19:09.037Z,3.63
2023-01-01T06:21:36.696Z,1.97
2023-01-01T06:24:06.028Z,1.93
2023-01-01T06:26:34.309Z,3.43
2023-01-01T06:29:03.036Z,4.53
2023-01-01T06:31:36.813Z,3.13
2023-01-01T06:34:09.742Z,3.00
2023-01-01T06:36:37.507Z,3.73
2023-01-01T06:39:06.039Z,2.83
2023-01-01T06:41:33.773Z,3.23
2023-01-01T06:44:02.321Z,3.63
2023-01-01T06:46:31.734Z,4.63
2023-01-01T06:49:02.648Z,3.07
2023-01-01T06:51:33.463Z,2.93
2023-01-01T06:54:03.973Z,3.07
2023-01-01T06:56:32.913Z,2.10
2023-01-01T06:59:01.500Z,4.53
2023-01-01T07:01:33.237Z,2.47
2023-01-01T07:04:02.384Z,2.80
2023-01-01T07:06:33.548Z,3.17
2023-01-01T07:09:01.231Z,3.63
2023-01-01T07:11:29.991Z,2.90
2023-01-01T07:13:57.659Z,2.97
2023-01-01T07:16:26.252Z,1.83
2023-01-01T07:18:54.131Z,3.07
2023-01-01T07:21:32.337Z,4.30
2023-01-01T07:24:01.304Z,2.63
2023-01-01T07:26:31.698Z,3.80
2023-01-01T07:29:06.894Z,2.73
2023-01-01T07:31:36.517Z,2.60
2023-01-01T07:34:04.309Z,1.83
2023-01-01T07:36:34.532Z,3.13
2023-01-01T07:39:02.210Z,2.97
2023-01-01T07:41:30.280Z,3.70
2023-01-01T07:43:59.823Z,3.43
2023-01-01T07:46:28.533Z,4.07
2023-01-01T07:48:56.509Z,2.47
2023-01-01T07:51:25.405Z,3.33
2023-01-01T07:53:54.422Z,3.33
2023-01-01T07:56:22.431Z,2.93
2023-01-01T07:58:50.119Z,1.70
2023-01-01T08:01:19.228Z,2.93
2023-01-01T08:03:52.667Z,3.07
2023-01-01T08:06:20.746Z,2.33
2023-01-01T08:08:49.064Z,3.50
2023-01-01T08:11:19.232Z,3.03
2023-01-01T08:13:46.863Z,3.93
2023-01-01T08:16:14.886Z,4.07
2023-01-01T08:18:42.617Z,3.20
2023-01-01T08:21:10.687Z,2.23
2023-01-01T08:23:38.340Z,2.33
2023-01-01T08:26:06.616Z,2.47
2023-01-01T08:28:35.612Z,2.23
2023-01-01T08:31:03.656Z,3.73
2023-01-01T08:33:31.359Z,2.33
2023-01-01T08:36:00.150Z,2.40
2023-01-01T08:38:27.890Z,2.73
2023-01-01T08:40:55.904Z,2.90
2023-01-01T08:43:25.409Z,3.37
2023-01-01T08:45:54.984Z,2.13
2023-01-01T08:48:28.870Z,2.00
2023-01-01T08:51:01.398Z,1.30
2023-01-01T08:53:29.895Z,1.77
2023-01-01T08:55:58.677Z,1.83
2023-01-01T08:58:26.509Z,1.60
2023-01-01T09:00:55.637Z,1.00
2023-01-01T09:03:24.042Z,1.23
2023-01-01T09:05:51.773Z,0.83
2023-01-01T09:08:19.811Z,1.27
2023-01-01T09:10:47.814Z,0.87
2023-01-01T09:13:18.927Z,0.80
2023-01-01T09:15:47.086Z,2.00
2023-01-01T09:18:16.889Z,1.13
2023-01-01T09:20:44.653Z,1.00
2023-01-01T09:23:13.163Z,2.00
2023-01-01T09:25:40.841Z,1.57
2023-01-01T09:28:12.256Z,1.30
2023-01-01T09:30:39.946Z,5.63
2023-01-01T09:33:07.636Z,2.20
2023-01-01T09:35:38.495Z,0.53
2023-01-01T09:38:06.763Z,1.93
2023-01-01T09:40:51.377Z,1.17
2023-01-01T09:43:29.631Z,2.67
2023-01-01T09:46:00.726Z,1.20
2023-01-01T09:48:31.853Z,2.03
2023-01-01T09:51:04.363Z,1.33
2023-01-01T09:53:38.199Z,2.27
2023-01-01T09:56:07.120Z,1.07
2023-01-01T09:58:37.881Z,1.50
2023-01-01T10:01:15.726Z,0.63
2023-01-01T10:03:49.578Z,0.90
2023-01-01T10:06:24.983Z,1.47
2023-01-01T10:09:08.708Z,1.00
2023-01-01T10:11:46.795Z,1.50
2023-01-01T10:14:23.361Z,1.37
2023-01-01T10:16:55.265Z,1.10
2023-01-01T10:19:29.720Z,1.10
2023-01-01T10:22:04.913Z,0.77
2023-01-01T10:24:41.363Z,1.87
2023-01-01T10:27:20.239Z,1.20
2023-01-01T10:29:51.261Z,0.90
2023-01-01T10:32:21.991Z,1.73
2023-01-01T10:34:51.671Z,1.33
2023-01-01T10:37:21.684Z,1.50
2023-01-01T10:39:50.676Z,1.00
2023-01-01T10:42:18.448Z,1.20
2023-01-01T10:44:47.675Z,0.70
2023-01-01T10:47:26.323Z,1.83
2023-01-01T10:49:56.976Z,1.80
2023-01-01T10:52:31.556Z,1.23
2023-01-01T10:55:00.772Z,1.27
2023-01-01T10:57:34.915Z,0.70
2023-01-01T11:00:24.132Z,1.23
2023-01-01T11:03:15.401Z,0.90
2023-01-01T11:06:02.829Z,1.70
2023-01-01T11:08:34.275Z,5.13
2023-01-01T11:11:04.105Z,0.57
2023-01-01T11:13:34.552Z,1.50
2023-01-01T11:16:02.907Z,0.93
2023-01-01T11:18:35.952Z,1.07
2023-01-01T11:21:06.687Z,0.97
2023-01-01T11:23:37.853Z,0.87
2023-01-01T11:26:08.229Z,1.13
2023-01-01T11:28:37.292Z,0.90
2023-01-01T11:31:11.407Z,8.70
2023-01-01T11:33:44.555Z,1.33
2023-01-01T11:36:12.957Z,0.80
2023-01-01T11:38:42.166Z,3.67
2023-01-01T11:41:09.918Z,1.73
2023-01-01T11:43:42.004Z,1.10
2023-01-01T11:46:12.803Z,0.87
2023-01-01T11:48:44.552Z,1.20
2023-01-01T11:51:29.884Z,0.70
2023-01-01T11:54:24.191Z,1.43
2023-01-01T11:56:55.802Z,0.60
2023-01-01T11:59:28.773Z,0.63
2023-01-01T12:02:00.282Z,1.13
2023-01-01T12:04:32.524Z,0.60
2023-01-01T12:07:05.700Z,0.90
2023-01-01T12:09:42.119Z,0.90
2023-01-01T12:12:14.205Z,2.43
2023-01-01T12:14:48.042Z,1.10
2023-01-01T12:17:21.035Z,1.93
2023-01-01T12:19:58.116Z,0.70
2023-01-01T12:22:26.902Z,1.13
2023-01-01T12:24:56.654Z,0.90
2023-01-01T12:27:41.636Z,0.83
2023-01-01T12:30:16.823Z,0.40
2023-01-01T12:33:12.193Z,1.60
2023-01-01T12:36:01.974Z,1.20
2023-01-01T12:38:57.287Z,0.53
2023-01-01T12:41:37.057Z,2.30
2023-01-01T12:44:12.516Z,4.63
2023-01-01T12:46:51.832Z,2.17
2023-01-01T12:49:36.019Z,6.33
2023-01-01T12:52:15.687Z,0.50
2023-01-01T12:55:04.066Z,1.37
2023-01-01T12:57:36.895Z,0.50
2023-01-01T13:00:14.134Z,3.80
2023-01-01T13:02:49.367Z,0.73
2023-01-01T13:05:23.632Z,1.00
2023-01-01T13:07:57.111Z,0.90
2023-01-01T13:10:28.951Z,2.73
2023-01-01T13:12:58.206Z,1.17
2023-01-01T13:15:49.096Z,1.07
2023-01-01T13:18:24.736Z,1.43
2023-01-01T13:21:00.202Z,0.63
2023-01-01T13:23:49.371Z,1.30
2023-01-01T13:26:49.295Z,1.07
2023-01-01T13:29:49.610Z,0.83
2023-01-01T13:32:17.791Z,1.43
2023-01-01T13:35:05.606Z,1.07
2023-01-01T13:37:44.973Z,0.70
2023-01-01T13:40:53.457Z,0.57
2023-01-01T13:43:27.640Z,0.90
2023-01-01T13:46:15.267Z,0.73
2023-01-01T13:49:07.383Z,1.37
2023-01-01T13:52:05.405Z,4.30
2023-01-01T13:54:56.131Z,3.27
2023-01-01T13:57:45.492Z,0.93
2023-01-01T14:00:22.277Z,2.00
2023-01-01T14:02:58.978Z,1.67
2023-01-01T14:05:33.641Z,1.00
2023-01-01T14:08:04.273Z,0.47
2023-01-01T14:10:35.206Z,1.07
2023-01-01T14:13:16.375Z,0.40
2023-01-01T14:15:53.430Z,2.57
2023-01-01T14:18:26.892Z,2.00
2023-01-01T14:20:55.164Z,0.60
2023-01-01T14:23:31.097Z,2.70
2023-01-01T14:26:01.172Z,1.63
2023-01-01T14:28:31.496Z,1.13
2023-01-01T14:31:08.626Z,1.13
2023-01-01T14:33:40.628Z,1.80
2023-01-01T14:36:18.990Z,2.27
2023-01-01T14:38:49.501Z,1.70
2023-01-01T14:41:21.393Z,2.10
2023-01-01T14:43:52.048Z,2.43
2023-01-01T14:46:22.092Z,1.50
2023-01-01T14:48:54.303Z,1.67
2023-01-01T14:51:25.085Z,1.10
2023-01-01T14:53:54.830Z,1.60
2023-01-01T14:56:28.365Z,0.97
2023-01-01T14:59:06.267Z,1.37
2023-01-01T15:01:34.080Z,1.43
2023-01-01T15:04:16.861Z,1.03
2023-01-01T15:06:45.684Z,1.23
2023-01-01T15:09:16.877Z,0.70
2023-01-01T15:11:45.088Z,1.30
2023-01-01T15:14:31.742Z,2.03
2023-01-01T15:17:05.167Z,1.83
2023-01-01T15:19:36.497Z,1.90
2023-01-01T15:22:10.852Z,1.70
2023-01-01T15:24:39.587Z,3.57
2023-01-01T15:27:15.378Z,1.23
2023-01-01T15:29:47.537Z,2.73
2023-01-01T15:32:17.287Z,1.10
2023-01-01T15:34:52.425Z,1.07
2023-01-01T15:37:24.041Z,3.13
2023-01-01T15:39:53.772Z,0.77
2023-01-01T15:42:33.588Z,2.07
2023-01-01T15:45:21.081Z,2.17
2023-01-01T15:47:50.855Z,2.27
2023-01-01T15:50:25.229Z,2.97
2023-01-01T15:52:56.779Z,0.77
2023-01-01T15:55:27.255Z,0.60
2023-01-01T15:57:56.338Z,2.87
2023-01-01T16:00:27.084Z,2.93
2023-01-01T16:02:59.498Z,2.63
2023-01-01T16:05:29.033Z,5.70
2023-01-01T16:08:01.964Z,4.10
2023-01-01T16:10:29.738Z,2.10
2023-01-01T16:12:57.925Z,1.43
2023-01-01T16:15:26.241Z,1.80
2023-01-01T16:17:55.610Z,1.67
2023-01-01T16:20:25.313Z,1.80
2023-01-01T16:22:54.695Z,1.63
2023-01-01T16:25:23.730Z,2.00
2023-01-01T16:27:51.703Z,2.67
2023-01-01T16:30:19.476Z,2.10
2023-01-01T16:32:49.342Z,1.87
2023-01-01T16:35:17.134Z,3.17
2023-01-01T16:37:45.511Z,1.37
2023-01-01T16:40:15.372Z,6.30
2023-01-01T16:42:43.131Z,2.30
2023-01-01T16:45:18.733Z,2.43
2023-01-01T16:47:47.125Z,3.97
2023-01-01T16:50:15.008Z,1.90
2023-01-01T16:52:45.200Z,1.27
2023-01-01T16:55:14.875Z,5.57
2023-01-01T16:57:43.776Z,5.80
2023-01-01T17:00:12.937Z,7.97
2023-01-01T17:02:41.445Z,5.30
2023-01-01T17:05:10.487Z,7.00
2023-01-01T17:07:38.184Z,2.50
2023-01-01T17:10:06.868Z,2.40
2023-01-01T17:12:35.887Z,2.00
2023-01-01T17:15:04.020Z,1.80
2023-01-01T17:17:31.751Z,2.47
2023-01-01T17:19:59.669Z,1.87
2023-01-01T17:22:33.922Z,2.50
2023-01-01T17:25:01.969Z,2.40
2023-01-01T17:27:29.602Z,3.30
2023-01-01T17:29:59.172Z,2.27
2023-01-01T17:32:26.885Z,2.77
2023-01-01T17:34:55.770Z,2.57
2023-01-01T17:37:23.456Z,4.00
2023-01-01T17:39:51.778Z,3.77
2023-01-01T17:42:19.485Z,2.17
2023-01-01T17:44:48.115Z,2.23
2023-01-01T17:47:17.149Z,3.23
2023-01-01T17:49:45.566Z,6.37
2023-01-01T17:52:13.232Z,5.33
2023-01-01T17:54:41.390Z,5.43
2023-01-01T17:57:09.004Z,5.23
2023-01-01T17:59:36.837Z,7.07
2023-01-01T18:02:05.870Z,24.53
2023-01-01T18:04:35.582Z,9.07
2023-01-01T18:07:06.379Z,8.33
2023-01-01T18:09:37.099Z,7.33
2023-01-01T18:12:06.226Z,7.73
2023-01-01T18:14:34.270Z,6.63
2023-01-01T18:17:01.947Z,7.20
2023-01-01T18:19:31.017Z,6.83
2023-01-01T18:22:00.035Z,7.80
2023-01-01T18:24:27.702Z,7.10
2023-01-01T18:26:55.348Z,6.13
2023-01-01T18:29:22.990Z,5.47
2023-01-01T18:31:51.446Z,9.33
2023-01-01T18:34:19.903Z,5.03
2023-01-01T18:36:47.734Z,5.33
2023-01-01T18:39:22.559Z,5.87
2023-01-01T18:42:18.730Z,8.47
2023-01-01T18:44:46.620Z,8.23
2023-01-01T18:47:16.398Z,8.27
2023-01-01T18:49:48.833Z,8.43
2023-01-01T18:52:22.406Z,8.97
2023-01-01T18:55:01.981Z,16.07
2023-01-01T18:57:30.319Z,17.70
2023-01-01T19:00:00.547Z,12.43
2023-01-01T19:02:35.219Z,9.77
2023-01-01T19:05:17.002Z,8.37
2023-01-01T19:07:46.534Z,9.70
2023-01-01T19:10:16.442Z,7.07
2023-01-01T19:12:44.534Z,8.60
2023-01-01T19:15:18.221Z,9.77
2023-01-01T19:17:46.452Z,14.20
2023-01-01T19:20:17.950Z,9.73
2023-01-01T19:22:45.817Z,10.70
2023-01-01T19:25:39.403Z,9.23
2023-01-01T19:28:31.252Z,9.13
2023-01-01T19:31:00.491Z,10.87
2023-01-01T19:33:28.748Z,10.50
2023-01-01T19:35:57.921Z,8.40
2023-01-01T19:38:25.583Z,10.83
2023-01-01T19:40:54.585Z,12.47
2023-01-01T19:43:22.423Z,13.33
2023-01-01T19:45:50.931Z,17.30
2023-01-01T19:48:19.192Z,19.77
2023-01-01T19:50:48.188Z,18.47
2023-01-01T19:53:15.981Z,18.13
2023-01-01T19:55:43.858Z,16.63
2023-01-01T19:58:13.086Z,16.87
2023-01-01T20:00:41.015Z,14.00
2023-01-01T20:03:51.674Z,12.43
2023-01-01T20:05:57.429Z,14.80
2023-01-01T20:08:26.855Z,13.40
2023-01-01T20:10:54.853Z,9.90
2023-01-01T20:13:23.966Z,8.93
2023-01-01T20:15:51.707Z,8.27
2023-01-01T20:18:19.511Z,8.73
2023-01-01T20:21:05.641Z,10.83
2023-01-01T20:23:33.320Z,10.07
2023-01-01T20:26:01.687Z,10.27
2023-01-01T20:28:48.502Z,10.50
2023-01-01T20:31:16.612Z,7.83
2023-01-01T20:33:44.595Z,9.63
2023-01-01T20:36:30.614Z,14.00
2023-01-01T20:38:58.456Z,7.80
2023-01-01T20:41:26.120Z,10.57
2023-01-01T20:43:56.598Z,8.90
2023-01-01T20:46:26.931Z,8.93
2023-01-01T20:48:54.799Z,11.67
2023-01-01T20:51:22.844Z,10.10
2023-01-01T20:53:50.533Z,10.93
2023-01-01T20:56:19.291Z,10.53
2023-01-01T20:58:50.271Z,10.67
2023-01-01T21:01:22.110Z,9.33
2023-01-01T21:03:49.828Z,8.03
2023-01-01T21:06:23.775Z,8.70
2023-01-01T21:08:52.357Z,9.37
2023-01-01T21:11:20.327Z,9.03
2023-01-01T21:13:48.893Z,5.37
2023-01-01T21:16:19.108Z,6.93
2023-01-01T21:18:49.285Z,5.83
2023-01-01T21:21:20.205Z,6.17
2023-01-01T21:23:49.231Z,7.20
2023-01-01T21:26:20.334Z,7.63
2023-01-01T21:28:49.099Z,6.60
2023-01-01T21:31:16.775Z,7.40
2023-01-01T21:33:45.869Z,7.90
2023-01-01T21:36:20.048Z,7.90
2023-01-01T21:38:48.651Z,8.80
2023-01-01T21:41:20.648Z,7.43
2023-01-01T21:43:51.938Z,8.37
2023-01-01T21:46:34.578Z,6.73
2023-01-01T21:49:05.294Z,5.50
2023-01-01T21:51:40.605Z,4.30
2023-01-01T21:54:19.387Z,4.13
2023-01-01T21:56:54.149Z,3.93
2023-01-01T21:59:33.003Z,3.53
2023-01-01T22:02:30.064Z,7.63
2023-01-01T22:04:58.002Z,3.43
2023-01-01T22:10:19.509Z,6.10
2023-01-01T22:12:49.285Z,5.03
2023-01-01T22:15:31.320Z,4.27
2023-01-01T22:18:15.755Z,3.63
2023-01-01T22:20:45.319Z,4.33
2023-01-01T22:23:29.884Z,4.57
2023-01-01T22:25:57.582Z,4.40
2023-01-01T22:28:27.606Z,4.67
2023-01-01T22:30:59.236Z,3.90
2023-01-01T22:33:32.590Z,4.40
2023-01-01T22:36:00.277Z,7.60
2023-01-01T22:38:34.428Z,3.87
2023-01-01T22:41:02.895Z,4.00
2023-01-01T22:43:34.576Z,3.77
2023-01-01T22:46:11.015Z,4.23
2023-01-01T22:48:39.931Z,2.53
2023-01-01T22:51:11.761Z,2.80
2023-01-01T22:53:40.821Z,3.20
2023-01-01T22:56:08.901Z,5.27
2023-01-01T22:58:36.804Z,5.40
2023-01-01T23:01:04.564Z,2.93
2023-01-01T23:03:32.536Z,3.70
2023-01-01T23:06:00.784Z,3.17
2023-01-01T23:08:28.588Z,2.33
2023-01-01T23:11:00.609Z,2.77
2023-01-01T23:13:45.778Z,3.53
2023-01-01T23:16:13.613Z,4.07
2023-01-01T23:18:41.705Z,2.90
2023-01-01T23:21:12.019Z,2.97
2023-01-01T23:23:41.060Z,3.23
2023-01-01T23:26:10.625Z,3.43
2023-01-01T23:28:39.964Z,3.03
2023-01-01T23:31:09.769Z,2.83
2023-01-01T23:33:38.402Z,2.87
2023-01-01T23:36:07.225Z,2.90
2023-01-01T23:38:35.624Z,4.50
2023-01-01T23:41:03.286Z,2.57
2023-01-01T23:43:33.655Z,2.30
2023-01-01T23:46:03.424Z,3.57
2023-01-01T23:48:31.344Z,2.57
2023-01-01T23:50:59.564Z,3.17
2023-01-01T23:53:27.219Z,2.70
2023-01-01T23:55:55.316Z,2.60
2023-01-01T23:58:23.134Z,2.50
